createdAt,value
2022-07-25T00:00:29.003Z,16.44
2022-07-25T00:03:57.772Z,16.37
2022-07-25T00:07:27.506Z,16.32
2022-07-25T00:10:55.341Z,16.26
2022-07-25T00:14:22.867Z,16.21
2022-07-25T00:17:54.138Z,16.19
2022-07-25T00:21:22.032Z,16.18
2022-07-25T00:24:49.361Z,16.17
2022-07-25T00:28:16.596Z,16.17
2022-07-25T00:31:43.811Z,16.17
2022-07-25T00:35:12.304Z,16.16
2022-07-25T00:38:40.898Z,16.15
2022-07-25T00:42:14.827Z,16.13
2022-07-25T00:45:42.604Z,16.10
2022-07-25T00:49:11.621Z,16.06
2022-07-25T00:52:39.714Z,16.00
2022-07-25T00:56:14.285Z,15.94
2022-07-25T00:59:44.364Z,15.88
2022-07-25T01:03:11.685Z,15.83
2022-07-25T01:06:47.463Z,15.80
2022-07-25T01:10:16.089Z,15.77
2022-07-25T01:13:47.097Z,15.75
2022-07-25T01:17:16.099Z,15.74
2022-07-25T01:20:50.059Z,15.75
2022-07-25T01:24:21.771Z,15.76
2022-07-25T01:27:55.480Z,15.78
2022-07-25T01:31:26.839Z,15.80
2022-07-25T01:34:57.986Z,15.82
2022-07-25T01:38:30.446Z,15.82
2022-07-25T01:42:02.658Z,15.82
2022-07-25T01:45:32.141Z,15.79
2022-07-25T01:49:00.312Z,15.77
2022-07-25T01:52:28.527Z,15.73
2022-07-25T01:55:56.241Z,15.67
2022-07-25T01:59:29.457Z,15.61
2022-07-25T02:03:10.169Z,15.59
2022-07-25T02:06:37.669Z,15.58
2022-07-25T02:10:06.517Z,15.58
2022-07-25T02:13:33.525Z,15.59
2022-07-25T02:17:01.801Z,15.61
2022-07-25T02:20:30.677Z,15.65
2022-07-25T02:24:01.507Z,15.68
2022-07-25T02:27:30.859Z,15.71
2022-07-25T02:31:05.221Z,15.71
2022-07-25T02:34:32.337Z,15.72
2022-07-25T02:37:59.581Z,15.71
2022-07-25T02:41:28.467Z,15.70
2022-07-25T02:44:57.557Z,15.66
2022-07-25T02:48:25.656Z,15.63
2022-07-25T02:51:53.243Z,15.59
2022-07-25T02:55:22.703Z,15.57
2022-07-25T02:58:50.889Z,15.55
2022-07-25T03:02:18.148Z,15.54
2022-07-25T03:05:45.882Z,15.53
2022-07-25T03:09:15.463Z,15.54
2022-07-25T03:12:45.167Z,15.56
2022-07-25T03:16:14.981Z,15.58
2022-07-25T03:19:43.373Z,15.61
2022-07-25T03:23:11.785Z,15.64
2022-07-25T03:26:39.458Z,15.69
2022-07-25T03:30:08.355Z,15.73
2022-07-25T03:33:36.408Z,15.76
2022-07-25T03:37:05.081Z,15.77
2022-07-25T03:40:37.477Z,15.76
2022-07-25T03:44:08.799Z,15.77
2022-07-25T03:47:38.402Z,15.77
2022-07-25T03:51:07.358Z,15.78
2022-07-25T03:54:38.160Z,15.79
2022-07-25T03:58:06.507Z,15.82
2022-07-25T04:01:34.246Z,15.87
2022-07-25T04:05:01.909Z,15.92
2022-07-25T04:08:28.940Z,15.98
2022-07-25T04:11:55.929Z,16.07
2022-07-25T04:15:23.072Z,16.17
2022-07-25T04:18:50.698Z,16.27
2022-07-25T04:22:18.712Z,16.39
2022-07-25T04:25:45.854Z,16.49
2022-07-25T04:29:13.747Z,16.59
2022-07-25T04:32:40.587Z,16.69
2022-07-25T04:36:10.301Z,16.80
2022-07-25T04:39:38.185Z,16.91
2022-07-25T04:43:05.461Z,17.00
2022-07-25T04:46:32.253Z,17.06
2022-07-25T04:50:00.171Z,17.13
2022-07-25T04:53:28.228Z,17.18
2022-07-25T04:56:55.973Z,17.24
2022-07-25T05:00:35.459Z,17.28
2022-07-25T05:04:07.537Z,17.34
2022-07-25T05:07:35.376Z,17.43
2022-07-25T05:11:02.693Z,17.55
2022-07-25T05:14:30.516Z,17.64
2022-07-25T05:17:57.984Z,17.75
2022-07-25T05:21:30.018Z,17.86
2022-07-25T05:24:58.538Z,17.96
2022-07-25T05:28:25.900Z,18.07
2022-07-25T05:31:53.004Z,18.14
2022-07-25T05:35:20.719Z,18.21
2022-07-25T05:38:48.202Z,18.29
2022-07-25T05:42:15.914Z,18.36
2022-07-25T05:45:51.846Z,18.44
2022-07-25T05:49:20.554Z,18.52
2022-07-25T05:52:48.379Z,18.64
2022-07-25T05:56:15.536Z,18.71
2022-07-25T05:59:42.555Z,18.81
2022-07-25T06:03:09.771Z,18.93
2022-07-25T06:06:36.807Z,19.05
2022-07-25T06:10:04.107Z,19.18
2022-07-25T06:13:31.317Z,19.34
2022-07-25T06:17:01.999Z,19.50
2022-07-25T06:20:29.055Z,19.66
2022-07-25T06:23:56.704Z,19.80
2022-07-25T06:27:28.872Z,19.91
2022-07-25T06:30:58.103Z,20.02
2022-07-25T06:34:28.823Z,20.11
2022-07-25T06:37:56.565Z,20.19
2022-07-25T06:41:23.423Z,20.28
2022-07-25T06:44:50.805Z,20.36
2022-07-25T06:48:18.392Z,20.45
2022-07-25T06:51:46.431Z,20.55
2022-07-25T06:55:19.266Z,20.64
2022-07-25T06:58:46.997Z,20.70
2022-07-25T07:02:14.342Z,20.83
2022-07-25T07:05:43.566Z,20.98
2022-07-25T07:09:12.560Z,21.12
2022-07-25T07:12:40.095Z,21.23
2022-07-25T07:16:09.497Z,21.36
2022-07-25T07:19:39.418Z,21.46
2022-07-25T07:23:08.995Z,21.56
2022-07-25T07:26:38.017Z,21.65
2022-07-25T07:30:07.383Z,21.74
2022-07-25T07:33:37.019Z,21.84
2022-07-25T07:37:05.243Z,21.94
2022-07-25T07:40:32.606Z,22.05
2022-07-25T07:44:00.313Z,22.17
2022-07-25T07:47:27.653Z,22.30
2022-07-25T07:50:54.747Z,22.42
2022-07-25T07:54:41.240Z,22.55
2022-07-25T07:58:10.470Z,22.68
2022-07-25T08:01:39.544Z,22.80
2022-07-25T08:05:15.931Z,22.93
2022-07-25T08:08:43.575Z,23.07
2022-07-25T08:12:15.012Z,23.21
2022-07-25T08:15:43.897Z,23.32
2022-07-25T08:19:12.779Z,23.44
2022-07-25T08:22:46.774Z,23.56
2022-07-25T08:26:38.170Z,23.70
2022-07-25T08:30:13.033Z,23.84
2022-07-25T08:33:40.884Z,23.96
2022-07-25T08:37:10.062Z,24.06
2022-07-25T08:40:47.177Z,24.17
2022-07-25T08:44:15.914Z,24.29
2022-07-25T08:47:47.904Z,24.40
2022-07-25T08:51:18.340Z,24.54
2022-07-25T08:54:49.894Z,24.66
2022-07-25T08:58:21.265Z,24.79
2022-07-25T09:01:51.849Z,24.93
2022-07-25T09:05:20.632Z,25.06
2022-07-25T09:09:05.857Z,25.17
2022-07-25T09:12:34.937Z,25.26
2022-07-25T09:16:06.773Z,25.37
2022-07-25T09:19:58.608Z,25.49
2022-07-25T09:23:39.898Z,25.61
2022-07-25T09:27:14.974Z,25.70
2022-07-25T09:30:55.193Z,25.84
2022-07-25T09:34:39.169Z,25.97
2022-07-25T09:38:16.350Z,26.09
2022-07-25T09:41:45.736Z,26.20
2022-07-25T09:45:16.420Z,26.29
2022-07-25T09:48:59.475Z,26.40
2022-07-25T09:52:29.961Z,26.49
2022-07-25T09:55:59.479Z,26.56
2022-07-25T09:59:28.232Z,26.62
2022-07-25T10:03:13.450Z,26.73
2022-07-25T10:06:50.047Z,26.81
2022-07-25T10:10:29.999Z,26.86
2022-07-25T10:13:58.438Z,26.95
2022-07-25T10:17:26.029Z,27.07
2022-07-25T10:20:55.739Z,27.22
2022-07-25T10:24:23.070Z,27.36
2022-07-25T10:27:53.274Z,27.47
2022-07-25T10:31:36.511Z,27.53
2022-07-25T10:35:18.123Z,27.64
2022-07-25T10:38:49.202Z,27.76
2022-07-25T10:42:23.190Z,27.90
2022-07-25T10:46:01.403Z,28.00
2022-07-25T10:49:37.502Z,28.11
2022-07-25T10:53:10.503Z,28.20
2022-07-25T10:56:59.339Z,28.38
2022-07-25T11:00:29.159Z,28.51
2022-07-25T11:04:00.739Z,28.64
2022-07-25T11:07:36.854Z,28.76
2022-07-25T11:11:10.000Z,28.85
2022-07-25T11:14:41.741Z,28.90
2022-07-25T11:18:09.230Z,29.00
2022-07-25T11:21:48.418Z,29.09
2022-07-25T11:25:17.219Z,29.15
2022-07-25T11:28:47.077Z,29.22
2022-07-25T11:32:16.867Z,29.31
2022-07-25T11:35:45.179Z,29.38
2022-07-25T11:39:18.613Z,29.48
2022-07-25T11:42:48.204Z,29.56
2022-07-25T11:46:15.786Z,29.62
2022-07-25T11:49:49.974Z,29.66
2022-07-25T11:53:20.198Z,29.74
2022-07-25T11:56:48.101Z,29.84
2022-07-25T12:00:21.384Z,29.99
2022-07-25T12:03:51.161Z,30.08
2022-07-25T12:07:18.974Z,30.15
2022-07-25T12:10:47.792Z,30.33
2022-07-25T12:14:16.704Z,30.46
2022-07-25T12:17:50.048Z,30.65
2022-07-25T12:21:17.749Z,30.82
2022-07-25T12:24:45.097Z,30.99
2022-07-25T12:28:12.457Z,31.16
2022-07-25T12:31:39.982Z,31.36
2022-07-25T12:35:10.976Z,31.55
2022-07-25T12:38:38.677Z,31.75
2022-07-25T12:42:05.982Z,31.95
2022-07-25T12:45:33.301Z,32.17
2022-07-25T12:49:00.292Z,32.44
2022-07-25T12:52:27.973Z,32.63
2022-07-25T12:55:56.069Z,32.81
2022-07-25T12:59:24.162Z,33.04
2022-07-25T13:02:53.494Z,33.30
2022-07-25T13:06:21.458Z,33.50
2022-07-25T13:09:49.931Z,33.66
2022-07-25T13:13:17.296Z,33.86
2022-07-25T13:16:46.192Z,34.08
2022-07-25T13:20:17.275Z,34.18
2022-07-25T13:23:44.820Z,34.33
2022-07-25T13:27:13.418Z,34.50
2022-07-25T13:30:43.793Z,34.61
2022-07-25T13:34:12.024Z,34.71
2022-07-25T13:37:46.579Z,-30.30
2022-07-25T13:41:15.398Z,34.94
2022-07-25T13:44:43.053Z,35.06
2022-07-25T13:48:30.914Z,35.19
2022-07-25T13:52:03.139Z,35.35
2022-07-25T13:55:30.476Z,35.46
2022-07-25T13:58:57.587Z,35.59
2022-07-25T14:02:25.060Z,35.68
2022-07-25T14:05:52.383Z,35.82
2022-07-25T14:09:20.609Z,36.01
2022-07-25T14:12:50.367Z,36.10
2022-07-25T14:16:19.650Z,36.13
2022-07-25T14:19:47.022Z,36.20
2022-07-25T14:23:14.559Z,36.30
2022-07-25T14:26:47.041Z,36.48
2022-07-25T14:30:16.409Z,36.58
2022-07-25T14:33:47.104Z,36.46
2022-07-25T14:37:15.116Z,36.42
2022-07-25T14:40:45.178Z,36.48
2022-07-25T14:44:12.950Z,36.57
2022-07-25T14:47:42.646Z,36.61
2022-07-25T14:51:10.361Z,36.72
2022-07-25T14:54:37.406Z,36.84
2022-07-25T14:58:06.345Z,36.82
2022-07-25T15:01:34.703Z,36.80
2022-07-25T15:05:02.993Z,36.91
2022-07-25T15:08:32.189Z,36.97
2022-07-25T15:11:59.572Z,36.98
2022-07-25T15:15:26.673Z,36.98
2022-07-25T15:19:15.352Z,37.05
2022-07-25T15:22:41.682Z,37.04
2022-07-25T15:26:09.110Z,37.06
2022-07-25T15:29:38.162Z,37.05
2022-07-25T15:33:06.789Z,36.97
2022-07-25T15:36:34.438Z,36.96
2022-07-25T15:40:10.974Z,36.99
2022-07-25T15:43:38.929Z,36.91
2022-07-25T15:47:07.837Z,36.89
2022-07-25T15:50:48.060Z,36.92
2022-07-25T15:54:30.940Z,36.97
2022-07-25T15:58:08.126Z,36.82
2022-07-25T16:01:40.034Z,36.67
2022-07-25T16:05:14.964Z,36.31
2022-07-25T16:08:42.812Z,35.90
2022-07-25T16:12:28.562Z,35.49
2022-07-25T16:16:02.733Z,35.10
2022-07-25T16:19:43.143Z,34.65
2022-07-25T16:23:14.202Z,34.22
2022-07-25T16:26:41.206Z,33.84
2022-07-25T16:30:10.955Z,33.51
2022-07-25T16:33:38.732Z,33.19
2022-07-25T16:37:07.570Z,32.91
2022-07-25T16:40:36.074Z,32.64
2022-07-25T16:44:03.429Z,32.36
2022-07-25T16:47:31.161Z,32.14
2022-07-25T16:50:59.483Z,31.91
2022-07-25T16:54:26.954Z,31.69
2022-07-25T16:57:59.400Z,31.49
2022-07-25T17:01:28.907Z,31.33
2022-07-25T17:04:56.522Z,31.17
2022-07-25T17:08:23.863Z,31.00
2022-07-25T17:11:54.395Z,30.84
2022-07-25T17:15:23.426Z,30.71
2022-07-25T17:18:51.038Z,30.57
2022-07-25T17:22:20.651Z,30.43
2022-07-25T17:25:51.778Z,30.27
2022-07-25T17:29:24.762Z,30.14
2022-07-25T17:33:10.849Z,29.98
2022-07-25T17:36:38.204Z,29.86
2022-07-25T17:40:09.077Z,29.77
2022-07-25T17:43:36.990Z,29.68
2022-07-25T17:47:05.610Z,29.59
2022-07-25T17:50:34.644Z,29.50
2022-07-25T17:54:02.992Z,29.40
2022-07-25T17:57:30.514Z,29.33
2022-07-25T18:01:10.249Z,29.27
2022-07-25T18:04:38.551Z,29.19
2022-07-25T18:08:06.080Z,29.11
2022-07-25T18:11:33.675Z,29.03
2022-07-25T18:15:04.411Z,28.93
2022-07-25T18:18:32.035Z,28.82
2022-07-25T18:21:59.416Z,28.70
2022-07-25T18:25:26.909Z,28.61
2022-07-25T18:28:53.927Z,28.51
2022-07-25T18:32:21.207Z,28.40
2022-07-25T18:35:48.827Z,28.29
2022-07-25T18:39:16.369Z,28.19
2022-07-25T18:42:44.917Z,28.06
2022-07-25T18:46:12.841Z,27.95
2022-07-25T18:49:46.114Z,27.85
2022-07-25T18:53:16.539Z,27.73
2022-07-25T18:56:44.791Z,27.58
2022-07-25T19:00:14.113Z,27.45
2022-07-25T19:03:41.674Z,27.32
2022-07-25T19:07:09.123Z,27.19
2022-07-25T19:10:36.611Z,27.07
2022-07-25T19:14:04.925Z,26.95
2022-07-25T19:17:33.547Z,26.84
2022-07-25T19:21:03.069Z,26.72
2022-07-25T19:24:31.858Z,26.62
2022-07-25T19:27:59.025Z,26.51
2022-07-25T19:31:27.036Z,26.41
2022-07-25T19:35:00.244Z,26.30
2022-07-25T19:38:27.971Z,26.20
2022-07-25T19:41:57.340Z,26.11
2022-07-25T19:45:25.348Z,26.01
2022-07-25T19:48:56.693Z,25.94
2022-07-25T19:52:23.968Z,25.85
2022-07-25T19:55:54.672Z,25.76
2022-07-25T19:59:32.702Z,25.68
2022-07-25T20:03:01.230Z,25.60
2022-07-25T20:06:29.453Z,25.52
2022-07-25T20:10:05.315Z,25.44
2022-07-25T20:13:38.458Z,25.38
2022-07-25T20:17:06.734Z,25.32
2022-07-25T20:20:35.882Z,25.26
2022-07-25T20:24:07.762Z,25.20
2022-07-25T20:27:36.291Z,25.15
2022-07-25T20:31:07.032Z,25.10
2022-07-25T20:34:34.800Z,25.03
2022-07-25T20:38:02.762Z,24.96
2022-07-25T20:41:41.074Z,24.92
2022-07-25T20:45:10.713Z,24.87
2022-07-25T20:48:39.387Z,24.82
2022-07-25T20:52:12.048Z,24.75
2022-07-25T20:55:44.655Z,24.69
2022-07-25T20:59:16.782Z,24.62
2022-07-25T21:02:46.634Z,24.60
2022-07-25T21:06:13.902Z,24.56
2022-07-25T21:09:43.026Z,24.52
2022-07-25T21:13:12.239Z,24.48
2022-07-25T21:16:43.282Z,24.45
2022-07-25T21:20:14.722Z,24.40
2022-07-25T21:23:42.335Z,24.36
2022-07-25T21:27:10.768Z,24.33
2022-07-25T21:30:41.511Z,24.29
2022-07-25T21:34:09.352Z,24.25
2022-07-25T21:37:37.151Z,24.23
2022-07-25T21:41:07.766Z,24.20
2022-07-25T21:44:36.769Z,24.17
2022-07-25T21:48:15.802Z,24.12
2022-07-25T21:51:59.691Z,24.08
2022-07-25T21:55:28.326Z,24.03
2022-07-25T21:58:59.903Z,23.99
2022-07-25T22:02:46.035Z,23.93
2022-07-25T22:06:32.632Z,23.88
2022-07-25T22:10:00.486Z,23.82
2022-07-25T22:13:27.805Z,23.79
2022-07-25T22:16:58.079Z,23.75
2022-07-25T22:20:25.734Z,23.71
2022-07-25T22:23:53.079Z,23.67
2022-07-25T22:27:21.454Z,23.63
2022-07-25T22:30:49.013Z,23.57
2022-07-25T22:34:16.565Z,23.53
2022-07-25T22:37:45.033Z,23.47
2022-07-25T22:41:16.324Z,23.44
2022-07-25T22:44:45.533Z,23.41
2022-07-25T22:48:15.034Z,23.35
2022-07-25T22:51:43.041Z,23.31
2022-07-25T22:55:12.319Z,23.27
2022-07-25T22:58:39.487Z,23.25
2022-07-25T23:02:07.611Z,23.22
2022-07-25T23:05:40.148Z,23.19
2022-07-25T23:09:08.931Z,23.15
2022-07-25T23:12:36.361Z,23.10
2022-07-25T23:16:04.834Z,23.04
2022-07-25T23:19:42.107Z,23.00
2022-07-25T23:23:09.797Z,22.95
2022-07-25T23:26:38.465Z,22.89
2022-07-25T23:30:06.911Z,22.84
2022-07-25T23:33:34.710Z,22.78
2022-07-25T23:37:04.568Z,22.74
2022-07-25T23:40:32.143Z,22.70
2022-07-25T23:44:00.915Z,22.67
2022-07-25T23:47:53.512Z,22.64
2022-07-25T23:51:22.233Z,22.61
2022-07-25T23:54:49.532Z,22.56
2022-07-25T23:58:16.790Z,22.55
